Time;durP1;ratioP1;P1;durP2;ratioP2;P2;SDS_P1;SDS_P2;PMS_P1;PMS_P2;Temp;Humidity;BMP_temperature;BMP_pressure;BME280_temperature;BME280_humidity;BME280_pressure;Samples;Min_cycle;Max_cycle;Signal;HPM_P1;HPM_P2
2022/07/16 00:03:20;;;;;;;0.70;0.20;;;;;;;;;;4957280;28;20457;-75
2022/07/16 00:05:48;;;;;;;0.70;0.10;;;20.00;99.90;;;;;;4963054;28;20442;-74
2022/07/16 00:08:16;;;;;;;0.67;0.20;;;19.90;99.90;;;;;;4975014;28;20533;-74
2022/07/16 00:10:44;;;;;;;0.70;0.10;;;19.90;99.90;;;;;;4973782;28;20537;-74
2022/07/16 00:13:12;;;;;;;0.60;0.10;;;19.90;99.90;;;;;;4974933;28;20490;-75
2022/07/16 00:15:40;;;;;;;0.63;0.10;;;19.90;99.90;;;;;;4966920;28;20470;-75
2022/07/16 00:20:55;;;;;;;0.70;0.20;;;19.80;99.90;;;;;;4965657;28;20548;-75
2022/07/16 00:23:23;;;;;;;0.70;0.10;;;19.80;99.90;;;;;;4973377;28;20458;-74
2022/07/16 00:25:51;;;;;;;0.60;0.10;;;19.80;99.90;;;;;;4956730;28;20459;-75
2022/07/16 00:28:18;;;;;;;0.70;0.20;;;19.80;99.90;;;;;;4959975;28;20481;-74
2022/07/16 00:30:46;;;;;;;0.70;0.30;;;19.70;99.90;;;;;;4955683;29;20451;-74
2022/07/16 00:33:14;;;;;;;0.70;0.10;;;19.70;99.90;;;;;;4955458;29;20479;-74
2022/07/16 00:35:42;;;;;;;0.70;0.10;;;19.70;99.90;;;;;;4954133;29;20582;-74
2022/07/16 00:38:12;;;;;;;0.67;0.17;;;19.70;99.90;;;;;;4954128;29;20547;-74
2022/07/16 00:40:40;;;;;;;0.70;0.10;;;19.70;99.90;;;;;;4954893;29;20489;-75
2022/07/16 00:43:11;;;;;;;0.70;0.10;;;19.70;99.90;;;;;;4955705;29;20443;-75
2022/07/16 00:45:39;;;;;;;0.70;0.10;;;19.60;99.90;;;;;;4954875;28;20455;-75
2022/07/16 00:48:07;;;;;;;0.60;0.10;;;19.60;99.90;;;;;;4955370;28;20475;-74
2022/07/16 00:50:36;;;;;;;0.60;0.10;;;19.70;99.90;;;;;;4963990;28;20455;-76
2022/07/16 00:53:05;;;;;;;0.60;0.10;;;19.70;99.90;;;;;;4974528;28;20478;-74
2022/07/16 00:55:35;;;;;;;0.60;0.10;;;;;;;;;;4971862;28;20454;-75
2022/07/16 00:58:03;;;;;;;0.60;0.10;;;19.70;99.90;;;;;;4955956;28;20489;-76
2022/07/16 01:00:31;;;;;;;0.60;0.10;;;19.80;99.90;;;;;;4961053;28;20821;-75
2022/07/16 01:03:02;;;;;;;0.60;0.10;;;19.70;99.90;;;;;;4968496;28;20458;-74
2022/07/16 01:05:30;;;;;;;0.60;0.10;;;19.70;99.90;;;;;;4954288;28;20450;-76
2022/07/16 01:07:59;;;;;;;0.70;0.20;;;19.60;99.90;;;;;;4955522;29;21014;-75
2022/07/16 01:10:27;;;;;;;0.60;0.10;;;19.60;99.90;;;;;;4955646;28;20461;-75
2022/07/16 01:13:00;;;;;;;0.60;0.10;;;19.60;99.90;;;;;;4957426;28;20921;-76
2022/07/16 01:15:28;;;;;;;0.60;0.10;;;19.50;99.90;;;;;;4957933;28;20985;-75
2022/07/16 01:17:56;;;;;;;0.60;0.10;;;19.50;99.90;;;;;;4955377;28;20566;-77
2022/07/16 01:20:24;;;;;;;0.60;0.10;;;19.50;99.90;;;;;;4959388;28;20518;-75
2022/07/16 01:22:54;;;;;;;0.60;0.10;;;19.60;99.90;;;;;;4956100;29;20451;-74
2022/07/16 01:25:26;;;;;;;0.60;0.10;;;19.50;99.90;;;;;;4954686;28;20466;-75
2022/07/16 01:27:53;;;;;;;0.70;0.10;;;19.40;99.90;;;;;;4959313;28;20475;-74
2022/07/16 01:30:21;;;;;;;0.60;0.10;;;19.40;99.90;;;;;;4959284;28;20549;-74
2022/07/16 01:32:49;;;;;;;0.60;0.10;;;19.40;99.90;;;;;;4977270;28;20985;-74
2022/07/16 01:35:18;;;;;;;0.60;0.10;;;19.30;99.90;;;;;;4958257;28;20461;-74
2022/07/16 01:37:46;;;;;;;0.60;0.10;;;19.30;99.90;;;;;;4965842;28;20502;-74
2022/07/16 01:40:16;;;;;;;0.60;0.20;;;19.30;99.90;;;;;;4964258;28;20550;-75
2022/07/16 01:42:45;;;;;;;0.60;0.10;;;19.30;99.90;;;;;;4982324;28;20836;-74
2022/07/16 01:45:13;;;;;;;0.60;0.10;;;19.20;99.90;;;;;;4982918;28;20460;-76
2022/07/16 01:47:41;;;;;;;0.60;0.10;;;19.20;99.90;;;;;;4983893;28;20470;-75
2022/07/16 01:50:09;;;;;;;0.60;0.10;;;19.20;99.90;;;;;;4973831;28;20454;-74
2022/07/16 01:52:37;;;;;;;1.57;0.93;;;19.20;99.90;;;;;;4974882;28;20473;-74
2022/07/16 01:55:06;;;;;;;0.60;0.13;;;19.10;99.90;;;;;;4985485;28;20514;-74
2022/07/16 01:57:34;;;;;;;0.60;0.10;;;19.10;99.90;;;;;;4981306;28;20579;-74
2022/07/16 02:00:04;;;;;;;0.60;0.10;;;19.10;99.90;;;;;;4974799;28;20465;-75
2022/07/16 02:02:32;;;;;;;0.60;0.10;;;19.00;99.90;;;;;;4976382;28;20446;-76
2022/07/16 02:05:00;;;;;;;0.60;0.10;;;19.10;99.90;;;;;;4975723;28;20964;-76
2022/07/16 02:07:28;;;;;;;0.60;0.10;;;18.90;99.90;;;;;;4977521;28;20456;-74
2022/07/16 02:09:56;;;;;;;0.70;0.10;;;18.90;99.90;;;;;;4977032;28;20453;-73
2022/07/16 02:12:24;;;;;;;0.70;0.20;;;18.80;99.90;;;;;;4980903;28;20446;-74
2022/07/16 02:14:52;;;;;;;0.60;0.10;;;18.80;99.90;;;;;;4973318;28;20993;-76
2022/07/16 02:17:21;;;;;;;0.60;0.10;;;18.70;99.90;;;;;;4956120;29;20461;-75
2022/07/16 02:19:49;;;;;;;0.60;0.10;;;18.70;99.90;;;;;;4956322;28;20493;-77
2022/07/16 02:22:17;;;;;;;0.60;0.10;;;18.70;99.90;;;;;;4957972;28;20451;-75
2022/07/16 02:24:45;;;;;;;0.60;0.10;;;17.80;99.90;;;;;;4956001;28;21048;-75
2022/07/16 02:27:13;;;;;;;0.60;0.10;;;18.70;99.90;;;;;;4956335;29;20797;-75
2022/07/16 02:29:41;;;;;;;0.60;0.20;;;18.70;99.90;;;;;;4965839;28;20475;-76
2022/07/16 02:32:09;;;;;;;0.60;0.10;;;18.70;99.90;;;;;;4975667;28;20448;-76
2022/07/16 02:34:38;;;;;;;0.60;0.10;;;18.70;99.90;;;;;;4974879;28;20508;-75
2022/07/16 02:37:06;;;;;;;0.60;0.10;;;18.70;99.90;;;;;;4974575;28;20457;-75
2022/07/16 02:39:34;;;;;;;0.60;0.10;;;18.70;99.90;;;;;;4964740;28;20477;-75
2022/07/16 02:42:02;;;;;;;1.43;1.33;;;18.60;99.90;;;;;;4956215;28;20451;-75
2022/07/16 02:44:33;;;;;;;0.60;0.20;;;18.60;99.90;;;;;;4955797;29;20450;-74
2022/07/16 02:47:01;;;;;;;0.60;0.17;;;18.60;99.90;;;;;;4955142;28;20462;-74
2022/07/16 02:49:29;;;;;;;0.60;0.10;;;18.60;99.90;;;;;;4964990;28;20565;-75
2022/07/16 02:51:59;;;;;;;0.60;0.10;;;18.50;99.90;;;;;;4974900;28;20476;-76
2022/07/16 02:54:26;;;;;;;0.60;0.10;;;18.50;99.90;;;;;;4974604;28;20486;-76
2022/07/16 02:56:54;;;;;;;0.60;0.10;;;18.50;99.90;;;;;;4974657;28;20676;-76
2022/07/16 02:59:22;;;;;;;0.60;0.20;;;18.40;99.90;;;;;;4972990;28;20478;-76
2022/07/16 03:01:50;;;;;;;0.70;0.30;;;18.40;99.90;;;;;;4974304;28;20927;-76
2022/07/16 03:04:18;;;;;;;0.60;0.10;;;18.40;99.90;;;;;;4962603;28;20473;-76
2022/07/16 03:06:46;;;;;;;0.60;0.10;;;18.40;99.90;;;;;;4955074;28;20517;-76
2022/07/16 03:09:15;;;;;;;0.60;0.10;;;18.30;99.90;;;;;;4962132;28;20497;-76
2022/07/16 03:11:43;;;;;;;0.60;0.20;;;18.30;99.90;;;;;;4974162;28;20461;-74
2022/07/16 03:14:10;;;;;;;0.60;0.10;;;18.20;99.90;;;;;;4974271;28;20485;-74
2022/07/16 03:16:38;;;;;;;0.60;0.10;;;18.20;99.90;;;;;;4973625;28;20455;-75
2022/07/16 03:19:06;;;;;;;0.60;0.10;;;18.10;99.90;;;;;;4967992;28;20562;-74
2022/07/16 03:21:34;;;;;;;0.60;0.20;;;18.00;99.90;;;;;;4956000;28;20455;-76
2022/07/16 03:24:02;;;;;;;0.60;0.10;;;18.00;99.90;;;;;;4972797;28;20965;-75
2022/07/16 03:26:32;;;;;;;0.60;0.10;;;;;;;;;;4974555;28;20457;-75
2022/07/16 03:29:00;;;;;;;0.60;0.20;;;17.90;99.90;;;;;;4970371;28;20479;-75
2022/07/16 03:31:28;;;;;;;0.60;0.10;;;18.00;99.90;;;;;;4970411;28;20888;-75
2022/07/16 03:33:56;;;;;;;0.60;0.10;;;18.00;99.90;;;;;;4955018;28;20495;-75
2022/07/16 03:36:26;;;;;;;0.60;0.10;;;18.00;99.90;;;;;;4972524;28;20450;-74
2022/07/16 03:39:04;;;;;;;0.60;0.10;;;18.00;99.90;;;;;;4973713;28;20988;-74
2022/07/16 03:41:34;;;;;;;0.60;0.10;;;18.00;99.90;;;;;;4973759;28;20548;-75
2022/07/16 03:44:04;;;;;;;0.60;0.10;;;18.00;99.90;;;;;;4955205;28;20451;-74
2022/07/16 03:46:32;;;;;;;0.60;0.10;;;18.00;99.90;;;;;;4962060;28;20454;-76
2022/07/16 03:49:00;;;;;;;0.60;0.10;;;18.00;99.90;;;;;;4959013;28;20490;-75
2022/07/16 03:51:29;;;;;;;0.60;0.10;;;18.00;99.90;;;;;;4966880;28;20456;-75
2022/07/16 03:53:57;;;;;;;0.60;0.10;;;18.00;99.90;;;;;;4970535;28;20850;-75
2022/07/16 03:56:25;;;;;;;0.60;0.13;;;18.00;99.90;;;;;;4959510;28;20460;-75
2022/07/16 03:58:55;;;;;;;0.60;0.10;;;17.90;99.90;;;;;;4962215;28;20482;-76
2022/07/16 04:01:23;;;;;;;0.60;0.10;;;17.80;99.90;;;;;;4969276;28;20450;-76
2022/07/16 04:03:51;;;;;;;0.60;0.17;;;17.80;99.90;;;;;;4972219;28;20463;-75
2022/07/16 04:06:19;;;;;;;0.60;0.20;;;17.90;99.90;;;;;;4954208;28;20455;-75
2022/07/16 04:08:48;;;;;;;0.60;0.10;;;17.90;99.90;;;;;;4963311;28;20481;-76
2022/07/16 04:11:16;;;;;;;0.60;0.20;;;17.90;99.90;;;;;;4956442;28;20824;-76
2022/07/16 04:13:44;;;;;;;0.60;0.10;;;17.90;99.90;;;;;;4955695;28;20814;-76
2022/07/16 04:16:13;;;;;;;0.60;0.13;;;17.80;99.90;;;;;;4966431;28;20481;-75
2022/07/16 04:18:41;;;;;;;0.60;0.10;;;17.80;99.90;;;;;;4965311;28;20893;-75
2022/07/16 04:21:09;;;;;;;0.60;0.20;;;17.80;99.90;;;;;;4956325;28;20538;-76
2022/07/16 04:23:38;;;;;;;0.60;0.10;;;17.80;99.90;;;;;;4954724;28;20464;-76
2022/07/16 04:26:06;;;;;;;0.60;0.20;;;17.80;99.90;;;;;;4954174;28;20500;-75
2022/07/16 04:28:34;;;;;;;1.57;0.90;;;17.80;99.90;;;;;;4958317;28;20488;-75
2022/07/16 04:31:02;;;;;;;0.70;0.20;;;17.60;99.90;;;;;;4973743;28;20450;-76
2022/07/16 04:33:31;;;;;;;0.60;0.10;;;17.70;99.90;;;;;;4974938;28;20463;-76
2022/07/16 04:35:59;;;;;;;0.60;0.10;;;17.70;99.90;;;;;;4971789;28;20497;-76
2022/07/16 04:38:27;;;;;;;0.60;0.10;;;17.70;99.90;;;;;;4959981;28;20466;-76
2022/07/16 04:40:55;;;;;;;0.60;0.10;;;17.60;99.90;;;;;;4956594;28;20464;-74
2022/07/16 04:43:23;;;;;;;0.60;0.30;;;17.70;99.90;;;;;;4973571;28;20462;-75
2022/07/16 04:45:51;;;;;;;0.60;0.20;;;17.70;99.90;;;;;;4972951;28;20452;-74
2022/07/16 04:48:19;;;;;;;0.60;0.10;;;17.60;99.90;;;;;;4967626;28;20553;-76
2022/07/16 04:50:48;;;;;;;0.60;0.20;;;17.60;99.90;;;;;;4953820;28;20458;-76
2022/07/16 04:53:16;;;;;;;0.60;0.20;;;17.70;99.90;;;;;;4954035;28;20538;-75
2022/07/16 04:55:44;;;;;;;0.60;0.20;;;17.70;99.90;;;;;;4953514;28;20852;-76
2022/07/16 04:58:12;;;;;;;0.60;0.10;;;17.70;99.90;;;;;;4954560;28;20497;-76
2022/07/16 05:00:40;;;;;;;0.60;0.10;;;17.80;99.90;;;;;;4953881;28;20451;-76
2022/07/16 05:03:08;;;;;;;0.60;0.10;;;17.80;99.90;;;;;;4972998;28;20521;-75
2022/07/16 05:05:38;;;;;;;0.60;0.10;;;17.80;99.90;;;;;;4971555;28;20537;-75
2022/07/16 05:08:08;;;;;;;0.60;0.10;;;17.80;99.90;;;;;;4962925;28;20561;-74
2022/07/16 05:10:37;;;;;;;0.60;0.10;;;17.80;99.90;;;;;;4975123;28;20454;-74
2022/07/16 05:13:06;;;;;;;0.60;0.20;;;17.80;99.90;;;;;;4977044;28;20457;-76
2022/07/16 05:15:34;;;;;;;0.60;0.10;;;17.70;99.90;;;;;;4976764;28;21038;-75
2022/07/16 05:18:02;;;;;;;0.80;0.23;;;17.70;99.90;;;;;;4984021;23;20518;-71
2022/07/16 05:20:31;;;;;;;0.70;0.20;;;17.80;99.90;;;;;;4957168;29;20457;-71
2022/07/16 05:22:58;;;;;;;0.60;0.20;;;17.80;99.90;;;;;;4940044;29;20803;-72
2022/07/16 05:25:28;;;;;;;0.60;0.10;;;17.80;99.90;;;;;;4938440;29;20435;-72
2022/07/16 05:27:55;;;;;;;0.60;0.20;;;17.80;99.90;;;;;;4955705;28;20454;-71
2022/07/16 05:30:23;;;;;;;0.60;0.20;;;17.80;99.90;;;;;;4976828;28;20442;-72
2022/07/16 05:32:51;;;;;;;0.60;0.10;;;17.90;99.90;;;;;;4958748;28;20820;-72
2022/07/16 05:35:19;;;;;;;0.60;0.10;;;18.00;99.90;;;;;;4970469;28;20489;-72
2022/07/16 05:37:47;;;;;;;0.60;0.10;;;18.10;99.90;;;;;;4969917;28;20454;-71
2022/07/16 05:40:15;;;;;;;0.60;0.10;;;18.10;99.90;;;;;;4964070;28;20969;-72
2022/07/16 05:42:45;;;;;;;0.60;0.10;;;18.10;99.90;;;;;;4954442;28;20553;-72
2022/07/16 05:45:16;;;;;;;0.60;0.20;;;18.20;99.90;;;;;;4957183;29;20550;-72
2022/07/16 05:47:45;;;;;;;0.60;0.10;;;18.20;99.90;;;;;;4957440;28;20952;-71
2022/07/16 05:50:13;;;;;;;0.60;0.10;;;18.30;99.90;;;;;;4957185;29;20536;-72
2022/07/16 05:52:41;;;;;;;0.60;0.10;;;18.30;99.90;;;;;;4956581;28;20953;-71
2022/07/16 05:55:09;;;;;;;0.60;0.10;;;18.30;99.90;;;;;;4956382;28;20491;-71
2022/07/16 05:57:37;;;;;;;0.60;0.13;;;18.50;99.90;;;;;;4971004;28;21177;-72
2022/07/16 06:00:10;;;;;;;0.60;0.10;;;18.50;99.90;;;;;;4974398;28;20510;-72
2022/07/16 06:02:38;;;;;;;0.60;0.20;;;18.60;99.90;;;;;;4975938;28;20464;-72
2022/07/16 06:05:06;;;;;;;0.60;0.10;;;18.70;99.90;;;;;;4975778;28;20446;-72
2022/07/16 06:07:35;;;;;;;0.60;0.10;;;18.70;99.90;;;;;;4961296;28;20727;-72
2022/07/16 06:10:03;;;;;;;0.60;0.10;;;18.70;99.90;;;;;;4944446;28;20570;-72
2022/07/16 06:12:31;;;;;;;0.60;0.10;;;18.80;99.90;;;;;;4975760;28;20454;-73
2022/07/16 06:14:59;;;;;;;0.60;0.10;;;19.00;99.90;;;;;;4974082;28;20594;-72
2022/07/16 06:17:28;;;;;;;0.60;0.20;;;19.00;99.90;;;;;;4975048;28;20453;-72
2022/07/16 06:19:56;;;;;;;0.60;0.17;;;19.00;99.90;;;;;;4975264;28;20478;-72
2022/07/16 06:22:24;;;;;;;0.60;0.10;;;19.00;99.90;;;;;;4960637;28;20458;-72
2022/07/16 06:24:51;;;;;;;0.60;0.20;;;19.00;99.90;;;;;;4957201;28;20491;-72
2022/07/16 06:27:19;;;;;;;0.60;0.20;;;19.10;99.90;;;;;;4959201;28;20455;-72
2022/07/16 06:29:47;;;;;;;0.60;0.10;;;19.20;99.90;;;;;;4975082;28;20957;-72
2022/07/16 06:32:15;;;;;;;0.60;0.10;;;19.20;99.90;;;;;;4975276;28;20457;-72
2022/07/16 06:34:44;;;;;;;0.60;0.10;;;19.20;99.90;;;;;;4974974;28;20891;-72
2022/07/16 06:37:12;;;;;;;0.60;0.17;;;19.20;99.90;;;;;;4971608;28;20455;-72
2022/07/16 06:39:41;;;;;;;0.60;0.20;;;19.30;99.90;;;;;;4955782;28;20478;-72
2022/07/16 06:42:08;;;;;;;0.60;0.20;;;19.40;99.90;;;;;;4953255;28;20469;-72
2022/07/16 06:44:36;;;;;;;0.60;0.10;;;19.50;99.90;;;;;;4955643;29;20984;-71
2022/07/16 06:47:04;;;;;;;0.63;0.10;;;19.50;99.90;;;;;;4956861;28;20506;-71
2022/07/16 06:49:32;;;;;;;0.60;0.10;;;19.70;99.90;;;;;;4974803;28;20509;-72
2022/07/16 06:52:01;;;;;;;0.60;0.10;;;19.70;99.90;;;;;;4974575;28;20451;-71
2022/07/16 06:54:30;;;;;;;0.60;0.10;;;19.70;99.90;;;;;;4948533;28;20534;-72
2022/07/16 06:56:58;;;;;;;0.70;0.10;;;19.70;99.90;;;;;;4973946;28;20485;-72
2022/07/16 06:59:26;;;;;;;0.60;0.10;;;19.80;99.90;;;;;;4955520;29;20467;-72
2022/07/16 07:01:54;;;;;;;0.60;0.10;;;19.90;99.90;;;;;;4955865;28;20471;-73
2022/07/16 07:04:22;;;;;;;0.70;0.20;;;20.00;99.90;;;;;;4956863;28;20455;-72
2022/07/16 07:06:50;;;;;;;0.70;0.10;;;20.00;99.90;;;;;;4955210;28;20494;-72
2022/07/16 07:09:19;;;;;;;0.70;0.10;;;;;;;;;;4955300;29;21006;-72
2022/07/16 07:11:47;;;;;;;0.70;0.10;;;20.20;99.90;;;;;;4965325;28;20464;-72
2022/07/16 07:14:15;;;;;;;0.70;0.20;;;20.30;99.90;;;;;;4960733;28;20875;-72
2022/07/16 07:16:43;;;;;;;0.70;0.13;;;20.40;99.90;;;;;;4954757;28;20840;-72
2022/07/16 07:19:11;;;;;;;0.70;0.20;;;20.60;99.90;;;;;;4968931;28;20484;-71
2022/07/16 07:21:39;;;;;;;0.70;0.10;;;20.60;99.90;;;;;;4973019;28;20541;-72
2022/07/16 07:24:07;;;;;;;0.70;0.20;;;20.80;99.90;;;;;;4974808;28;20450;-72
2022/07/16 07:26:56;;;;;;;0.70;0.30;;;20.90;99.90;;;;;;4972502;28;20497;-72
2022/07/16 07:29:24;;;;;;;0.70;0.30;;;21.00;99.90;;;;;;4967372;28;20557;-71
2022/07/16 07:31:52;;;;;;;0.70;0.10;;;21.00;99.90;;;;;;4964582;28;20823;-72
2022/07/16 07:34:19;;;;;;;0.70;0.20;;;21.10;99.90;;;;;;4952454;28;20542;-72
2022/07/16 07:36:47;;;;;;;0.70;0.20;;;21.10;99.90;;;;;;4958590;28;20478;-72
2022/07/16 07:39:15;;;;;;;0.70;0.20;;;21.20;99.90;;;;;;4975581;28;20477;-72
2022/07/16 07:41:43;;;;;;;0.70;0.10;;;21.30;99.90;;;;;;4972607;28;20853;-72
2022/07/16 07:44:12;;;;;;;0.70;0.30;;;21.40;99.90;;;;;;4966873;28;20540;-72
2022/07/16 07:46:40;;;;;;;0.70;0.10;;;21.50;99.90;;;;;;4973689;28;20529;-72
2022/07/16 07:49:11;;;;;;;0.70;0.20;;;20.80;99.90;;;;;;4972469;28;20474;-71
2022/07/16 07:51:39;;;;;;;0.70;0.20;;;21.60;99.90;;;;;;4965907;28;20455;-71
2022/07/16 07:54:07;;;;;;;0.70;0.10;;;21.80;99.90;;;;;;4954415;29;20466;-72
2022/07/16 07:56:35;;;;;;;0.70;0.10;;;21.80;99.90;;;;;;4954776;28;20505;-72
2022/07/16 07:59:03;;;;;;;0.70;0.10;;;21.90;99.90;;;;;;4959568;28;20506;-73
2022/07/16 08:01:32;;;;;;;0.70;0.10;;;22.00;99.90;;;;;;4981713;28;20458;-72
2022/07/16 08:04:00;;;;;;;0.70;0.20;;;22.10;99.90;;;;;;4952934;28;20447;-74
2022/07/16 08:06:28;;;;;;;0.70;0.20;;;22.20;99.90;;;;;;4964851;28;20513;-74
2022/07/16 08:08:56;;;;;;;0.70;0.10;;;22.20;99.90;;;;;;4966288;28;20474;-73
2022/07/16 08:11:32;;;;;;;0.70;0.10;;;22.30;99.90;;;;;;4952113;28;20857;-74
2022/07/16 08:14:00;;;;;;;0.70;0.10;;;22.40;99.90;;;;;;4956857;28;20471;-74
2022/07/16 08:16:49;;;;;;;0.70;0.10;;;22.50;99.90;;;;;;4948942;28;20537;-75
2022/07/16 08:19:17;;;;;;;0.70;0.10;;;22.60;99.90;;;;;;4954795;28;20479;-73
2022/07/16 08:21:45;;;;;;;0.70;0.10;;;22.70;99.90;;;;;;4956082;28;20819;-73
2022/07/16 08:26:58;;;;;;;0.70;0.10;;;22.80;99.90;;;;;;4966940;28;20458;-74
2022/07/16 08:29:26;;;;;;;0.70;0.17;;;22.90;99.90;;;;;;4961617;28;20482;-73
2022/07/16 08:31:55;;;;;;;0.70;0.20;;;22.90;99.90;;;;;;4954184;28;20451;-73
2022/07/16 08:34:24;;;;;;;0.70;0.10;;;23.00;99.90;;;;;;4967217;28;20450;-73
2022/07/16 08:36:52;;;;;;;0.70;0.10;;;23.00;99.90;;;;;;4973160;28;20478;-74
2022/07/16 08:39:21;;;;;;;0.70;0.10;;;23.00;99.90;;;;;;4973086;28;20477;-74
2022/07/16 08:41:50;;;;;;;0.80;0.30;;;23.10;99.90;;;;;;4973053;28;20828;-74
2022/07/16 08:44:18;;;;;;;0.70;0.10;;;23.10;99.90;;;;;;4960707;28;20550;-73
2022/07/16 08:46:47;;;;;;;0.70;0.20;;;23.20;99.90;;;;;;4954468;28;20439;-75
2022/07/16 08:49:18;;;;;;;0.70;0.20;;;23.10;99.90;;;;;;4952602;29;20475;-73
2022/07/16 08:51:47;;;;;;;0.70;0.20;;;23.10;99.90;;;;;;4951386;29;20447;-74
2022/07/16 08:54:20;;;;;;;2.43;0.83;;;23.10;99.90;;;;;;4958678;28;20469;-73
2022/07/16 08:56:49;;;;;;;0.70;0.30;;;22.90;99.90;;;;;;4953716;29;20486;-76
2022/07/16 08:59:18;;;;;;;0.70;0.20;;;22.80;99.90;;;;;;4953723;29;20525;-73
2022/07/16 09:01:46;;;;;;;0.70;0.10;;;22.80;99.90;;;;;;4953787;29;20451;-73
2022/07/16 09:04:13;;;;;;;0.70;0.10;;;22.90;99.90;;;;;;4954290;28;20457;-74
2022/07/16 09:06:43;;;;;;;0.70;0.10;;;23.00;99.90;;;;;;4952378;29;20435;-77
2022/07/16 09:09:11;;;;;;;0.70;0.10;;;23.20;99.90;;;;;;4953762;29;20493;-76
2022/07/16 09:11:39;;;;;;;0.70;0.10;;;23.20;99.90;;;;;;4954145;29;20447;-75
2022/07/16 09:14:09;;;;;;;0.70;0.20;;;23.20;99.90;;;;;;4963389;28;20450;-77
2022/07/16 09:16:39;;;;;;;0.70;0.20;;;23.30;99.90;;;;;;4972716;28;20478;-76
2022/07/16 09:19:10;;;;;;;0.70;0.20;;;23.30;99.90;;;;;;4975130;28;20477;-79
2022/07/16 09:21:57;;;;;;;0.70;0.10;;;23.30;99.90;;;;;;4976512;28;20472;-76
2022/07/16 09:24:34;;;;;;;0.70;0.10;;;23.40;99.90;;;;;;4965901;28;20498;-74
2022/07/16 09:27:03;;;;;;;0.70;0.10;;;23.40;99.90;;;;;;4958034;28;20438;-72
2022/07/16 09:29:34;;;;;;;0.70;0.10;;;23.50;99.90;;;;;;4961449;28;20995;-76
2022/07/16 09:32:02;;;;;;;1.10;0.80;;;23.50;99.90;;;;;;4970545;28;20635;-75
2022/07/16 09:34:30;;;;;;;2.73;0.83;;;23.50;99.90;;;;;;4972551;28;20476;-74
2022/07/16 09:37:00;;;;;;;0.70;0.20;;;23.50;99.90;;;;;;4937742;28;20483;-72
2022/07/16 09:39:32;;;;;;;0.70;0.10;;;23.60;99.90;;;;;;4943730;29;20490;-74
2022/07/16 09:42:01;;;;;;;0.70;0.50;;;23.60;99.90;;;;;;4958551;28;20453;-76
2022/07/16 09:44:31;;;;;;;0.70;0.20;;;23.60;99.90;;;;;;4958908;28;20506;-73
2022/07/16 09:47:05;;;;;;;0.70;0.20;;;23.50;99.90;;;;;;4957100;28;20757;-72
2022/07/16 09:49:36;;;;;;;0.70;0.20;;;23.50;99.90;;;;;;4952143;28;20479;-72
2022/07/16 09:52:04;;;;;;;0.70;0.20;;;23.60;99.90;;;;;;4957790;28;20549;-73
2022/07/16 09:54:35;;;;;;;0.70;0.20;;;23.70;99.90;;;;;;4942179;29;20462;-73
2022/07/16 09:57:09;;;;;;;0.70;0.10;;;23.80;99.90;;;;;;4953137;28;20489;-73
2022/07/16 09:59:37;;;;;;;0.80;0.30;;;23.90;99.90;;;;;;4937885;29;20471;-74
2022/07/16 10:02:25;;;;;;;1.23;1.13;;;23.90;99.90;;;;;;4956766;28;20442;-73
2022/07/16 10:04:53;;;;;;;0.70;0.10;;;23.90;99.90;;;;;;4972236;28;20455;-74
2022/07/16 10:07:28;;;;;;;0.70;0.20;;;23.80;99.90;;;;;;4966809;28;20492;-74
2022/07/16 10:09:57;;;;;;;0.70;0.20;;;23.90;99.90;;;;;;4967346;28;20458;-73
2022/07/16 10:12:26;;;;;;;0.70;0.10;;;24.00;99.90;;;;;;4959832;28;20458;-73
2022/07/16 10:14:55;;;;;;;0.80;0.37;;;24.10;99.90;;;;;;4956677;29;20950;-72
2022/07/16 10:17:32;;;;;;;1.27;0.73;;;24.20;99.90;;;;;;4956116;29;20570;-73
2022/07/16 10:20:01;;;;;;;0.70;0.20;;;24.40;99.90;;;;;;4956523;28;20474;-73
2022/07/16 10:22:31;;;;;;;0.70;0.10;;;24.40;99.90;;;;;;4965827;28;20454;-74
2022/07/16 10:25:00;;;;;;;1.00;0.77;;;24.40;99.90;;;;;;4975756;28;20450;-71
2022/07/16 10:27:34;;;;;;;0.70;0.20;;;24.30;99.90;;;;;;4964394;28;20494;-72
2022/07/16 10:30:14;;;;;;;0.70;0.20;;;24.30;99.90;;;;;;4958918;28;20509;-74
2022/07/16 10:33:17;;;;;;;0.70;0.20;;;24.30;99.90;;;;;;4960470;28;20512;-73
2022/07/16 10:35:50;;;;;;;6.63;4.33;;;24.30;99.90;;;;;;4976245;28;20465;-72
2022/07/16 10:38:21;;;;;;;0.70;0.10;;;24.30;99.90;;;;;;4954892;28;20495;-73
2022/07/16 10:41:13;;;;;;;0.70;0.20;;;24.30;99.90;;;;;;4955886;28;20954;-73
2022/07/16 10:43:41;;;;;;;0.70;0.13;;;24.20;99.90;;;;;;4958541;28;20547;-73
2022/07/16 10:46:11;;;;;;;0.70;0.10;;;24.30;99.90;;;;;;4952897;29;20463;-75
2022/07/16 10:49:14;;;;;;;0.70;0.20;;;24.40;99.90;;;;;;4955498;28;20459;-74
2022/07/16 10:51:56;;;;;;;0.70;0.10;;;24.40;99.90;;;;;;4953873;29;20845;-74
2022/07/16 10:54:27;;;;;;;0.70;0.20;;;24.50;99.90;;;;;;4950656;28;20510;-74
2022/07/16 10:56:58;;;;;;;0.70;0.10;;;24.40;99.90;;;;;;4958569;28;20816;-73
2022/07/16 10:59:28;;;;;;;1.07;0.57;;;24.40;99.90;;;;;;4954259;28;20579;-70
2022/07/16 11:01:59;;;;;;;0.70;0.13;;;24.40;99.90;;;;;;4953705;29;20443;-71
2022/07/16 11:04:31;;;;;;;0.90;0.47;;;24.40;99.90;;;;;;4956556;29;20546;-72
2022/07/16 11:07:00;;;;;;;0.70;0.20;;;24.40;99.90;;;;;;4956365;29;20621;-74
2022/07/16 11:09:30;;;;;;;0.70;0.20;;;24.50;99.90;;;;;;4958780;28;20479;-75
2022/07/16 11:12:12;;;;;;;0.70;0.10;;;24.50;99.90;;;;;;4965811;28;20486;-77
2022/07/16 11:14:40;;;;;;;0.70;0.10;;;24.70;99.90;;;;;;4955657;28;20461;-73
2022/07/16 11:17:09;;;;;;;1.10;0.90;;;24.70;99.90;;;;;;4957367;29;20977;-72
2022/07/16 11:19:40;;;;;;;0.70;0.10;;;24.70;99.90;;;;;;4978236;23;20498;-72
2022/07/16 11:22:11;;;;;;;0.70;0.10;;;24.70;99.90;;;;;;4954776;29;20471;-69
2022/07/16 11:24:46;;;;;;;0.70;0.10;;;24.70;99.90;;;;;;4954482;29;20439;-73
2022/07/16 11:27:16;;;;;;;0.70;0.20;;;24.60;99.90;;;;;;4954579;29;21003;-74
2022/07/16 11:29:45;;;;;;;0.70;0.20;;;24.50;99.90;;;;;;4939658;29;20472;-71
2022/07/16 11:32:14;;;;;;;0.70;0.10;;;24.50;99.90;;;;;;4941711;29;20467;-70
2022/07/16 11:34:42;;;;;;;0.70;0.17;;;24.50;99.90;;;;;;4930150;29;20883;-74
2022/07/16 11:37:10;;;;;;;0.80;0.30;;;24.50;99.90;;;;;;4935611;29;20447;-69
2022/07/16 11:39:38;;;;;;;0.73;0.33;;;24.60;99.90;;;;;;4938975;29;20924;-71
2022/07/16 11:42:07;;;;;;;0.70;0.10;;;24.50;99.90;;;;;;4943841;29;20945;-71
2022/07/16 11:44:39;;;;;;;0.70;0.10;;;24.50;99.90;;;;;;4940090;29;20536;-71
2022/07/16 11:47:08;;;;;;;0.70;0.10;;;24.50;99.90;;;;;;4942448;29;20443;-72
2022/07/16 11:49:40;;;;;;;0.70;0.20;;;24.60;99.90;;;;;;4929523;29;20480;-70
2022/07/16 11:52:11;;;;;;;0.70;0.20;;;24.60;99.90;;;;;;4932667;29;20876;-71
2022/07/16 11:54:40;;;;;;;0.80;0.40;;;24.60;99.90;;;;;;4932574;29;20822;-69
2022/07/16 11:57:10;;;;;;;0.70;0.17;;;24.60;99.90;;;;;;4933324;29;20451;-69
2022/07/16 11:59:47;;;;;;;0.70;0.20;;;24.50;99.90;;;;;;4929015;29;20562;-70
2022/07/16 12:02:18;;;;;;;0.70;0.20;;;24.50;99.90;;;;;;4931616;29;20439;-69
2022/07/16 12:04:50;;;;;;;0.70;0.20;;;24.60;99.90;;;;;;4933588;29;20523;-70
2022/07/16 12:07:30;;;;;;;0.70;0.20;;;24.50;99.90;;;;;;4941257;29;20445;-73
2022/07/16 12:10:00;;;;;;;0.70;0.10;;;24.70;99.90;;;;;;4927983;29;20480;-67
2022/07/16 12:12:29;;;;;;;0.70;0.30;;;24.80;99.90;;;;;;4933609;29;20551;-70
2022/07/16 12:15:00;;;;;;;0.70;0.20;;;25.00;99.90;;;;;;4953765;29;20439;-71
2022/07/16 12:17:44;;;;;;;0.70;0.20;;;25.00;99.90;;;;;;4955005;29;20431;-70
2022/07/16 12:20:16;;;;;;;0.80;0.77;;;24.80;99.90;;;;;;4940441;29;20494;-70
2022/07/16 12:22:56;;;;;;;0.70;0.10;;;24.80;99.90;;;;;;4954910;29;20446;-73
2022/07/16 12:25:31;;;;;;;0.70;0.20;;;24.80;99.90;;;;;;4953083;29;20451;-71
2022/07/16 12:28:00;;;;;;;0.70;0.20;;;25.00;99.90;;;;;;4943581;29;20965;-68
2022/07/16 12:30:38;;;;;;;0.70;0.10;;;24.90;99.90;;;;;;4929746;29;20468;-77
2022/07/16 12:33:09;;;;;;;0.70;0.20;;;24.90;99.90;;;;;;4926883;29;20469;-72
2022/07/16 12:35:38;;;;;;;0.70;0.10;;;24.70;99.90;;;;;;4933770;29;20456;-71
2022/07/16 12:38:08;;;;;;;0.70;0.10;;;24.60;99.90;;;;;;4929240;29;20998;-70
2022/07/16 12:40:36;;;;;;;0.70;0.20;;;24.50;99.90;;;;;;4932110;29;20480;-73
2022/07/16 12:43:04;;;;;;;0.70;0.20;;;24.40;99.90;;;;;;4933147;29;20475;-71
2022/07/16 12:45:32;;;;;;;0.70;0.20;;;24.40;99.90;;;;;;4918536;29;20444;-70
2022/07/16 12:48:02;;;;;;;0.70;0.20;;;24.40;99.90;;;;;;4934469;29;20440;-77
2022/07/16 12:50:33;;;;;;;0.80;0.50;;;24.60;99.90;;;;;;4925467;29;20634;-69
2022/07/16 12:53:01;;;;;;;0.70;0.23;;;24.80;99.90;;;;;;4935282;29;20460;-70
2022/07/16 13:01:21;;;;;;;0.70;0.10;;;25.40;99.90;;;;;;4870772;29;20443;-72
2022/07/16 13:03:51;;;;;;;1.37;1.03;;;25.60;99.90;;;;;;4864219;29;20542;-73
2022/07/16 13:06:20;;;;;;;0.70;0.20;;;25.70;99.90;;;;;;4893838;29;20453;-75
2022/07/16 13:08:49;;;;;;;0.90;0.53;;;25.80;99.90;;;;;;4938051;29;20452;-74
2022/07/16 13:11:19;;;;;;;0.70;0.10;;;25.70;99.90;;;;;;4944334;29;20568;-76
2022/07/16 13:13:48;;;;;;;0.70;0.10;;;25.70;99.90;;;;;;4938432;29;20456;-75